createdAt,value
2018-08-11T00:00:38.976Z,39.90
2018-08-11T00:01:43.905Z,39.90
2018-08-11T00:02:48.662Z,39.90
2018-08-11T00:03:53.765Z,39.90
2018-08-11T00:04:58.619Z,39.90
2018-08-11T00:06:03.576Z,39.90
2018-08-11T00:07:08.527Z,39.90
2018-08-11T00:08:13.253Z,39.90
2018-08-11T00:09:18.233Z,39.90
2018-08-11T00:10:23.278Z,40.00
2018-08-11T00:11:28.226Z,39.90
2018-08-11T00:12:33.328Z,39.80
2018-08-11T00:13:38.189Z,39.70
2018-08-11T00:14:43.142Z,39.70
2018-08-11T00:15:48.117Z,39.60
2018-08-11T00:16:53.120Z,39.60
2018-08-11T00:17:58.019Z,39.60
2018-08-11T00:19:02.990Z,39.60
2018-08-11T00:20:07.818Z,39.60
2018-08-11T00:21:12.954Z,39.60
2018-08-11T00:22:18.088Z,39.60
2018-08-11T00:23:23.075Z,39.60
2018-08-11T00:24:28.132Z,39.60
2018-08-11T00:25:32.934Z,39.60
2018-08-11T00:26:38.095Z,39.60
2018-08-11T00:27:43.142Z,39.60
2018-08-11T00:28:48.140Z,39.60
2018-08-11T00:29:53.170Z,39.60
2018-08-11T00:30:58.136Z,39.60
2018-08-11T00:32:02.908Z,39.70
2018-08-11T00:33:07.851Z,39.70
2018-08-11T00:34:12.837Z,39.70
2018-08-11T00:35:17.930Z,39.70
2018-08-11T00:36:23.213Z,39.60
2018-08-11T00:37:28.274Z,39.60
2018-08-11T00:38:33.275Z,39.60
2018-08-11T00:39:38.241Z,39.60
2018-08-11T00:40:43.127Z,39.60
2018-08-11T00:41:48.397Z,39.60
2018-08-11T00:42:53.523Z,39.60
2018-08-11T00:43:58.531Z,39.50
2018-08-11T00:45:03.631Z,39.60
2018-08-11T00:46:08.751Z,39.50
2018-08-11T00:47:13.987Z,39.50
2018-08-11T00:48:18.744Z,39.50
2018-08-11T00:49:23.899Z,39.50
2018-08-11T00:50:28.732Z,39.60
2018-08-11T00:51:33.574Z,39.50
2018-08-11T00:52:38.483Z,39.50
2018-08-11T00:53:43.381Z,39.50
2018-08-11T00:54:48.328Z,39.50
2018-08-11T00:55:53.232Z,39.50
2018-08-11T00:56:57.993Z,39.50
2018-08-11T00:58:02.929Z,39.60
2018-08-11T00:59:07.804Z,39.50
2018-08-11T01:00:12.768Z,39.50
2018-08-11T01:01:17.773Z,39.50
2018-08-11T01:02:23.827Z,39.50
2018-08-11T01:03:28.992Z,39.50
2018-08-11T01:04:34.097Z,39.50
2018-08-11T01:05:39.145Z,39.50
2018-08-11T01:06:43.891Z,39.60
2018-08-11T01:07:48.881Z,39.50
2018-08-11T01:08:54.093Z,39.50
2018-08-11T01:09:59.105Z,39.60
2018-08-11T01:11:04.024Z,39.60
2018-08-11T01:12:08.805Z,39.60
2018-08-11T01:13:13.992Z,39.60
2018-08-11T01:14:18.941Z,39.70
2018-08-11T01:15:23.776Z,39.60
2018-08-11T01:16:28.645Z,39.60
2018-08-11T01:17:33.564Z,39.60
2018-08-11T01:18:38.327Z,39.60
2018-08-11T01:19:43.318Z,39.60
2018-08-11T01:20:48.208Z,39.60
2018-08-11T01:21:53.074Z,39.50
2018-08-11T01:22:58.271Z,39.50
2018-08-11T01:24:03.268Z,39.50
2018-08-11T01:25:08.020Z,39.40
2018-08-11T01:26:12.747Z,39.50
2018-08-11T01:27:17.713Z,39.50
2018-08-11T01:28:22.658Z,39.40
2018-08-11T01:29:27.647Z,39.30
2018-08-11T01:30:32.791Z,39.30
2018-08-11T01:31:37.668Z,39.30
2018-08-11T01:32:42.844Z,39.20
2018-08-11T01:33:47.950Z,39.30
2018-08-11T01:34:52.875Z,39.10
2018-08-11T01:35:57.612Z,39.20
2018-08-11T01:37:02.593Z,39.70
2018-08-11T01:38:07.417Z,39.10
2018-08-11T01:39:12.608Z,39.00
2018-08-11T01:40:17.640Z,39.00
2018-08-11T01:41:22.625Z,39.00
2018-08-11T01:42:27.522Z,39.00
2018-08-11T01:43:32.512Z,39.10
2018-08-11T01:44:37.604Z,39.00
2018-08-11T01:45:42.409Z,39.00
2018-08-11T01:46:47.299Z,39.00
2018-08-11T01:47:52.340Z,38.90
2018-08-11T01:48:57.228Z,38.90
2018-08-11T01:50:02.428Z,39.00
2018-08-11T01:51:07.307Z,39.00
2018-08-11T01:52:12.314Z,39.00
2018-08-11T01:53:17.076Z,38.90
2018-08-11T01:54:21.902Z,38.90
2018-08-11T01:55:27.003Z,39.00
2018-08-11T01:56:32.090Z,39.60
2018-08-11T01:57:37.082Z,39.00
2018-08-11T01:58:42.587Z,38.90
2018-08-11T01:59:47.528Z,38.90
2018-08-11T02:00:52.532Z,39.00
2018-08-11T02:01:57.303Z,38.90
2018-08-11T02:03:02.299Z,38.90
2018-08-11T02:04:07.101Z,39.00
2018-08-11T02:05:12.194Z,39.10
2018-08-11T02:06:16.995Z,39.00
2018-08-11T02:07:21.903Z,39.00
2018-08-11T02:08:26.778Z,39.00
2018-08-11T02:09:31.587Z,38.90
2018-08-11T02:10:36.511Z,38.90
2018-08-11T02:11:41.490Z,39.00
2018-08-11T02:12:46.395Z,39.00
2018-08-11T02:13:51.291Z,39.00
2018-08-11T02:14:56.229Z,39.00
2018-08-11T02:16:01.015Z,38.80
2018-08-11T02:17:05.770Z,38.80
2018-08-11T02:18:10.824Z,38.90
2018-08-11T02:19:15.756Z,38.90
2018-08-11T02:20:20.575Z,38.80
2018-08-11T02:21:25.734Z,38.90
2018-08-11T02:22:30.897Z,38.80
2018-08-11T02:23:36.143Z,38.90
2018-08-11T02:24:41.111Z,38.80
2018-08-11T02:25:46.207Z,38.70
2018-08-11T02:26:51.229Z,38.80
2018-08-11T02:27:56.229Z,38.90
2018-08-11T02:29:01.153Z,38.80
2018-08-11T02:30:06.090Z,38.70
2018-08-11T02:31:10.835Z,38.60
2018-08-11T02:32:15.637Z,38.50
2018-08-11T02:33:20.421Z,38.50
2018-08-11T02:34:25.687Z,38.50
2018-08-11T02:35:30.528Z,38.50
2018-08-11T02:36:35.481Z,38.40
2018-08-11T02:37:40.625Z,38.30
2018-08-11T02:38:45.636Z,38.40
2018-08-11T02:39:50.422Z,38.40
2018-08-11T02:40:55.509Z,38.40
2018-08-11T02:42:00.378Z,38.50
2018-08-11T02:43:05.331Z,38.60
2018-08-11T02:44:10.213Z,38.60
2018-08-11T02:45:15.107Z,38.60
2018-08-11T02:46:20.005Z,38.60
2018-08-11T02:47:24.819Z,38.60
2018-08-11T02:48:30.005Z,38.60
2018-08-11T02:49:35.280Z,38.60
2018-08-11T02:50:40.227Z,38.30
2018-08-11T02:51:45.258Z,38.10
2018-08-11T02:52:50.396Z,37.90
2018-08-11T02:53:55.363Z,38.00
2018-08-11T02:55:00.493Z,37.70
2018-08-11T02:56:05.326Z,37.70
2018-08-11T02:57:10.186Z,37.70
2018-08-11T02:58:15.194Z,37.80
2018-08-11T02:59:20.120Z,37.60
2018-08-11T03:00:24.908Z,37.50
2018-08-11T03:01:29.771Z,37.40
2018-08-11T03:02:35.020Z,37.40
2018-08-11T03:03:39.797Z,37.30
2018-08-11T03:04:44.580Z,37.20
2018-08-11T03:05:49.511Z,37.10
2018-08-11T03:06:54.498Z,36.90
2018-08-11T03:07:59.397Z,36.80
2018-08-11T03:09:04.351Z,36.80
2018-08-11T03:10:09.102Z,36.80
2018-08-11T03:11:14.099Z,37.00
2018-08-11T03:12:18.858Z,37.10
2018-08-11T03:13:23.744Z,36.90
2018-08-11T03:14:28.634Z,36.80
2018-08-11T03:15:33.616Z,36.70
2018-08-11T03:16:38.469Z,36.70
2018-08-11T03:17:43.497Z,36.80
2018-08-11T03:18:48.369Z,36.80
2018-08-11T03:19:53.495Z,36.90
2018-08-11T03:20:58.260Z,37.00
2018-08-11T03:22:03.034Z,37.10
2018-08-11T03:23:07.952Z,37.10
2018-08-11T03:24:12.733Z,37.00
2018-08-11T03:25:17.603Z,36.90
2018-08-11T03:26:22.664Z,36.90
2018-08-11T03:27:27.723Z,36.80
2018-08-11T03:28:32.640Z,36.80
2018-08-11T03:29:37.606Z,37.00
2018-08-11T03:30:42.355Z,37.10
2018-08-11T03:31:47.449Z,37.30
2018-08-11T03:32:52.413Z,37.40
2018-08-11T03:33:57.127Z,37.50
2018-08-11T03:35:01.897Z,37.40
2018-08-11T03:36:06.780Z,37.30
2018-08-11T03:37:11.720Z,37.20
2018-08-11T03:38:16.711Z,37.20
2018-08-11T03:39:21.607Z,37.10
2018-08-11T03:40:26.435Z,37.30
2018-08-11T03:41:31.393Z,37.40
2018-08-11T03:42:36.547Z,37.50
2018-08-11T03:43:41.565Z,37.50
2018-08-11T03:44:46.547Z,37.60
2018-08-11T03:45:51.510Z,37.70
2018-08-11T03:46:56.392Z,37.70
2018-08-11T03:48:01.363Z,37.70
2018-08-11T03:49:06.169Z,37.60
2018-08-11T03:50:10.950Z,37.60
2018-08-11T03:51:16.022Z,38.30
2018-08-11T03:52:21.017Z,37.70
2018-08-11T03:53:25.865Z,37.70
2018-08-11T03:54:30.651Z,37.60
2018-08-11T03:55:35.658Z,37.60
2018-08-11T03:56:40.453Z,37.70
2018-08-11T03:57:45.311Z,37.80
2018-08-11T03:58:50.168Z,37.80
2018-08-11T03:59:54.977Z,37.80
2018-08-11T04:01:00.104Z,37.80
2018-08-11T04:02:04.849Z,37.80
2018-08-11T04:03:09.744Z,37.70
2018-08-11T04:04:14.512Z,37.90
2018-08-11T04:05:19.235Z,37.90
2018-08-11T04:06:24.378Z,37.70
2018-08-11T04:07:29.348Z,37.80
2018-08-11T04:08:34.354Z,37.80
2018-08-11T04:09:39.328Z,37.90
2018-08-11T04:10:44.418Z,38.00
2018-08-11T04:11:49.340Z,38.00
2018-08-11T04:12:54.457Z,38.00
2018-08-11T04:13:59.539Z,38.00
2018-08-11T04:15:04.630Z,38.10
2018-08-11T04:16:09.556Z,38.10
2018-08-11T04:17:14.530Z,38.10
2018-08-11T04:18:19.505Z,38.10
2018-08-11T04:19:24.591Z,38.10
2018-08-11T04:20:29.429Z,38.10
2018-08-11T04:21:34.602Z,38.20
2018-08-11T04:22:39.582Z,38.20
2018-08-11T04:23:44.340Z,38.30
2018-08-11T04:24:49.147Z,38.30
2018-08-11T04:25:54.268Z,38.40
2018-08-11T04:26:59.345Z,38.50
2018-08-11T04:28:04.131Z,38.60
2018-08-11T04:29:09.130Z,38.50
2018-08-11T04:30:14.007Z,38.50
2018-08-11T04:31:19.108Z,38.50
2018-08-11T04:32:23.870Z,38.60
2018-08-11T04:33:28.785Z,38.70
2018-08-11T04:34:33.775Z,38.60
2018-08-11T04:35:39.054Z,38.70
2018-08-11T04:36:43.878Z,38.90
2018-08-11T04:37:48.783Z,38.90
2018-08-11T04:38:53.936Z,39.80
2018-08-11T04:39:58.796Z,39.20
2018-08-11T04:41:03.638Z,39.40
2018-08-11T04:42:08.817Z,39.60
2018-08-11T04:43:13.743Z,39.70
2018-08-11T04:44:18.524Z,39.90
2018-08-11T04:45:23.637Z,40.60
2018-08-11T04:46:28.461Z,40.00
2018-08-11T04:47:33.272Z,40.00
2018-08-11T04:48:38.402Z,40.10
2018-08-11T04:49:43.159Z,40.20
2018-08-11T04:50:48.057Z,40.30
2018-08-11T04:51:52.910Z,40.30
2018-08-11T04:52:57.929Z,41.00
2018-08-11T04:54:03.055Z,40.30
2018-08-11T04:55:07.993Z,40.40
2018-08-11T04:56:12.927Z,40.40
2018-08-11T04:57:17.684Z,40.40
2018-08-11T04:58:22.837Z,40.40
2018-08-11T04:59:27.959Z,40.40
2018-08-11T05:00:32.944Z,40.50
2018-08-11T05:01:37.882Z,40.50
2018-08-11T05:02:43.015Z,40.50
2018-08-11T05:03:48.100Z,40.60
2018-08-11T05:04:53.042Z,40.60
2018-08-11T05:05:58.153Z,40.70
2018-08-11T05:07:03.170Z,40.70
2018-08-11T05:08:08.279Z,40.80
2018-08-11T05:09:13.272Z,40.80
2018-08-11T05:10:18.343Z,40.80
2018-08-11T05:11:23.419Z,40.90
2018-08-11T05:12:28.422Z,40.80
2018-08-11T05:13:33.341Z,41.00
2018-08-11T05:14:38.368Z,41.00
2018-08-11T05:15:43.439Z,40.90
2018-08-11T05:16:48.398Z,41.00
2018-08-11T05:17:53.633Z,41.00
2018-08-11T05:18:58.664Z,40.90
2018-08-11T05:20:03.586Z,41.00
2018-08-11T05:21:08.549Z,41.00
2018-08-11T05:22:13.463Z,41.00
2018-08-11T05:23:18.315Z,41.70
2018-08-11T05:24:23.534Z,41.00
2018-08-11T05:25:28.492Z,41.00
2018-08-11T05:26:33.470Z,41.00
2018-08-11T05:27:38.252Z,41.00
2018-08-11T05:28:43.138Z,41.00
2018-08-11T05:29:48.270Z,41.00
2018-08-11T05:30:53.259Z,41.00
2018-08-11T05:31:57.993Z,41.10
2018-08-11T05:33:03.161Z,41.10
2018-08-11T05:34:08.111Z,41.10
2018-08-11T05:35:13.124Z,41.10
2018-08-11T05:36:18.252Z,41.10
2018-08-11T05:37:23.157Z,41.10
2018-08-11T05:38:27.880Z,41.00
2018-08-11T05:39:32.622Z,41.10
2018-08-11T05:40:37.466Z,41.10
2018-08-11T05:41:42.627Z,41.10
2018-08-11T05:42:47.663Z,41.00
2018-08-11T05:43:52.738Z,41.00
2018-08-11T05:44:57.594Z,41.00
2018-08-11T05:46:02.746Z,41.00
2018-08-11T05:47:07.739Z,41.00
2018-08-11T05:48:12.691Z,41.00
2018-08-11T05:49:17.679Z,41.00
2018-08-11T05:50:22.805Z,41.00
2018-08-11T05:51:27.756Z,40.90
2018-08-11T05:52:32.628Z,40.90
2018-08-11T05:53:37.729Z,40.90
2018-08-11T05:54:42.822Z,41.00
2018-08-11T05:55:47.918Z,41.00
2018-08-11T05:56:52.723Z,40.90
2018-08-11T05:57:57.847Z,40.90
2018-08-11T05:59:02.690Z,40.90
2018-08-11T06:00:07.600Z,40.90
2018-08-11T06:01:12.800Z,40.90
2018-08-11T06:02:17.876Z,40.80
2018-08-11T06:03:22.769Z,40.90
2018-08-11T06:04:27.610Z,41.60
2018-08-11T06:05:32.791Z,41.00
2018-08-11T06:06:37.644Z,41.00
2018-08-11T06:07:42.758Z,41.00
2018-08-11T06:08:47.728Z,40.90
2018-08-11T06:09:52.701Z,40.80
2018-08-11T06:10:57.478Z,40.70
2018-08-11T06:12:02.382Z,40.70
2018-08-11T06:13:07.909Z,40.70
2018-08-11T06:14:12.972Z,40.70
2018-08-11T06:15:17.754Z,40.60
2018-08-11T06:16:22.644Z,40.60
2018-08-11T06:17:27.584Z,40.60
2018-08-11T06:18:32.340Z,40.60
2018-08-11T06:19:37.517Z,40.60
2018-08-11T06:20:42.644Z,40.50
2018-08-11T06:21:47.858Z,40.40
2018-08-11T06:22:52.661Z,40.20
2018-08-11T06:23:57.768Z,40.10
2018-08-11T06:25:02.938Z,40.10
2018-08-11T06:26:08.171Z,40.10
2018-08-11T06:27:13.087Z,40.10
2018-08-11T06:28:18.043Z,40.10
2018-08-11T06:29:22.873Z,40.20
2018-08-11T06:30:27.983Z,40.20
2018-08-11T06:31:32.822Z,40.30
2018-08-11T06:32:38.047Z,40.30
2018-08-11T06:33:42.965Z,40.20
2018-08-11T06:34:47.880Z,40.10
2018-08-11T06:35:53.008Z,40.10
2018-08-11T06:36:58.089Z,40.20
2018-08-11T06:38:03.259Z,40.20
2018-08-11T06:39:08.291Z,40.30
2018-08-11T06:40:13.347Z,40.40
2018-08-11T06:41:18.277Z,40.50
2018-08-11T06:42:23.298Z,40.50
2018-08-11T06:43:28.456Z,40.50
2018-08-11T06:44:33.434Z,40.50
2018-08-11T06:45:38.383Z,40.50
2018-08-11T06:46:43.644Z,40.50
2018-08-11T06:47:48.554Z,40.50
2018-08-11T06:48:53.382Z,40.50
2018-08-11T06:49:59.357Z,40.60
2018-08-11T06:51:04.132Z,40.70
2018-08-11T06:52:09.166Z,40.70
2018-08-11T06:53:14.095Z,40.70
2018-08-11T06:54:19.248Z,40.70
2018-08-11T06:55:24.358Z,40.70
2018-08-11T06:56:29.229Z,40.80
2018-08-11T06:57:34.038Z,40.80
2018-08-11T06:58:38.768Z,40.90
2018-08-11T06:59:43.527Z,40.90
2018-08-11T07:00:48.279Z,41.00
2018-08-11T07:01:53.169Z,41.00
2018-08-11T07:02:58.011Z,41.00
2018-08-11T07:04:02.997Z,41.00
2018-08-11T07:05:07.809Z,40.90
2018-08-11T07:06:12.617Z,40.80
2018-08-11T07:07:17.361Z,40.90
2018-08-11T07:08:22.573Z,40.90
2018-08-11T07:09:27.555Z,41.00
2018-08-11T07:10:32.505Z,40.90
2018-08-11T07:11:37.463Z,40.90
2018-08-11T07:12:42.331Z,40.90
2018-08-11T07:13:47.301Z,40.90
2018-08-11T07:14:52.266Z,40.90
2018-08-11T07:15:57.041Z,41.10
2018-08-11T07:17:02.007Z,41.00
2018-08-11T07:18:06.882Z,41.10
2018-08-11T07:19:11.619Z,41.10
2018-08-11T07:20:16.725Z,41.10
2018-08-11T07:21:21.767Z,41.20
2018-08-11T07:22:26.776Z,41.10
2018-08-11T07:23:31.886Z,41.00
2018-08-11T07:24:37.067Z,41.10
2018-08-11T07:25:41.869Z,41.10
2018-08-11T07:26:46.724Z,41.10
2018-08-11T07:27:51.736Z,41.10
2018-08-11T07:28:56.828Z,41.80
2018-08-11T07:30:01.965Z,41.20
2018-08-11T07:31:06.855Z,41.20
2018-08-11T07:32:11.896Z,41.30
2018-08-11T07:33:16.996Z,41.20
2018-08-11T07:34:21.885Z,41.20
2018-08-11T07:35:26.919Z,41.20
2018-08-11T07:36:32.087Z,41.80
2018-08-11T07:37:37.107Z,41.10
2018-08-11T07:38:41.912Z,41.20
2018-08-11T07:39:46.954Z,41.20
2018-08-11T07:40:51.841Z,41.20
2018-08-11T07:41:56.994Z,41.20
2018-08-11T07:43:02.104Z,41.20
2018-08-11T07:44:06.938Z,41.10
2018-08-11T07:45:11.807Z,41.10
2018-08-11T07:46:16.796Z,41.10
2018-08-11T07:47:21.560Z,41.20
2018-08-11T07:48:26.531Z,41.20
2018-08-11T07:49:31.564Z,41.40
2018-08-11T07:50:36.753Z,41.40
2018-08-11T07:51:41.616Z,41.40
2018-08-11T07:52:46.374Z,41.40
2018-08-11T07:53:51.453Z,41.40
2018-08-11T07:54:56.611Z,42.20
2018-08-11T07:56:01.926Z,41.60
2018-08-11T07:57:06.800Z,41.60
2018-08-11T07:58:11.571Z,41.60
2018-08-11T07:59:16.505Z,41.60
2018-08-11T08:00:21.434Z,41.60
2018-08-11T08:01:26.644Z,41.60
2018-08-11T08:02:31.333Z,41.50
2018-08-11T08:03:36.139Z,41.30
2018-08-11T08:04:41.169Z,41.20
2018-08-11T08:05:46.110Z,41.10
2018-08-11T08:06:51.163Z,41.10
2018-08-11T08:07:55.986Z,41.10
2018-08-11T08:09:01.031Z,41.10
2018-08-11T08:10:05.869Z,41.20
2018-08-11T08:11:10.878Z,41.30
2018-08-11T08:12:15.882Z,41.20
2018-08-11T08:13:20.648Z,41.10
2018-08-11T08:14:25.506Z,41.10
2018-08-11T08:15:30.465Z,41.10
2018-08-11T08:16:35.592Z,41.20
2018-08-11T08:17:40.788Z,41.20
2018-08-11T08:18:45.624Z,41.20
2018-08-11T08:19:50.788Z,41.20
2018-08-11T08:20:55.845Z,41.10
2018-08-11T08:22:00.910Z,41.20
2018-08-11T08:23:05.815Z,41.20
2018-08-11T08:24:11.023Z,41.20
2018-08-11T08:25:15.976Z,41.10
2018-08-11T08:26:21.040Z,41.20
2018-08-11T08:27:25.690Z,41.10
2018-08-11T08:28:30.499Z,41.10
2018-08-11T08:29:35.425Z,41.20
2018-08-11T08:30:40.179Z,41.10
2018-08-11T08:31:45.343Z,41.10
2018-08-11T08:32:50.055Z,41.10
2018-08-11T08:33:55.091Z,41.10
2018-08-11T08:35:00.059Z,41.10
2018-08-11T08:36:05.024Z,41.10
2018-08-11T08:37:09.947Z,41.10
2018-08-11T08:38:15.064Z,41.10
2018-08-11T08:39:20.230Z,41.20
2018-08-11T08:40:25.322Z,41.10
2018-08-11T08:41:30.337Z,41.10
2018-08-11T08:42:35.449Z,41.10
2018-08-11T08:43:40.321Z,41.00
2018-08-11T08:44:45.249Z,40.80
2018-08-11T08:45:50.137Z,40.70
2018-08-11T08:46:55.130Z,40.70
2018-08-11T08:47:59.876Z,40.70
2018-08-11T08:49:04.877Z,40.60
2018-08-11T08:50:09.622Z,40.50
2018-08-11T08:51:14.881Z,40.40
2018-08-11T08:52:20.004Z,40.20
2018-08-11T08:53:24.877Z,40.20
2018-08-11T08:54:29.699Z,40.10
2018-08-11T08:55:34.671Z,40.20
2018-08-11T08:56:39.788Z,40.10
2018-08-11T08:57:44.781Z,40.10
2018-08-11T08:58:49.547Z,40.00
2018-08-11T08:59:54.289Z,40.10
2018-08-11T09:00:59.419Z,40.20
2018-08-11T09:02:04.277Z,40.30
2018-08-11T09:03:09.312Z,40.30
2018-08-11T09:04:14.161Z,40.30
2018-08-11T09:05:18.951Z,40.20
2018-08-11T09:06:23.988Z,40.10
2018-08-11T09:07:30.245Z,40.10
2018-08-11T09:08:35.197Z,40.00
2018-08-11T09:09:40.368Z,40.00
2018-08-11T09:10:45.225Z,40.00
2018-08-11T09:11:50.278Z,39.90
2018-08-11T09:12:55.377Z,39.90
2018-08-11T09:14:00.163Z,39.80
2018-08-11T09:15:04.965Z,39.80
2018-08-11T09:16:09.786Z,39.80
2018-08-11T09:17:14.558Z,39.70
2018-08-11T09:18:19.710Z,39.60
2018-08-11T09:19:24.644Z,39.40
2018-08-11T09:20:29.736Z,39.40
2018-08-11T09:21:34.928Z,39.50
2018-08-11T09:22:39.790Z,40.10
2018-08-11T09:23:44.781Z,39.50
2018-08-11T09:24:49.898Z,39.50
2018-08-11T09:25:54.736Z,39.60
2018-08-11T09:26:59.824Z,39.60
2018-08-11T09:28:05.041Z,39.70
2018-08-11T09:29:10.102Z,39.60
2018-08-11T09:30:14.996Z,39.60
2018-08-11T09:31:19.982Z,39.60
2018-08-11T09:32:24.907Z,39.50
2018-08-11T09:33:29.849Z,39.30
2018-08-11T09:34:34.924Z,39.10
2018-08-11T09:35:40.078Z,38.80
2018-08-11T09:36:44.893Z,38.80
2018-08-11T09:37:50.020Z,38.80
2018-08-11T09:38:54.846Z,38.80
2018-08-11T09:39:59.844Z,38.80
2018-08-11T09:41:05.006Z,38.70
2018-08-11T09:42:10.181Z,38.80
2018-08-11T09:43:15.240Z,38.80
2018-08-11T09:44:20.479Z,38.80
2018-08-11T09:45:25.480Z,38.80
2018-08-11T09:46:30.217Z,38.80
2018-08-11T09:47:35.435Z,38.80
2018-08-11T09:48:40.656Z,38.70
2018-08-11T09:49:45.700Z,38.70
2018-08-11T09:50:50.845Z,38.70
2018-08-11T09:51:55.811Z,38.70
2018-08-11T09:53:00.911Z,38.70
2018-08-11T09:54:05.758Z,38.60
2018-08-11T09:55:10.563Z,38.60
2018-08-11T09:56:15.609Z,38.50
2018-08-11T09:57:20.683Z,38.30
2018-08-11T09:58:25.651Z,38.40
2018-08-11T09:59:30.763Z,38.40
2018-08-11T10:00:35.600Z,38.50
2018-08-11T10:01:40.555Z,38.80
2018-08-11T10:02:45.490Z,38.70
2018-08-11T10:03:51.076Z,39.00
2018-08-11T10:04:56.413Z,39.10
2018-08-11T10:06:01.173Z,39.20
2018-08-11T10:07:06.393Z,40.10
2018-08-11T10:08:11.264Z,39.60
2018-08-11T10:09:16.228Z,39.60
2018-08-11T10:10:21.587Z,39.80
2018-08-11T10:11:26.652Z,39.90
2018-08-11T10:12:31.616Z,40.10
2018-08-11T10:13:36.724Z,40.20
2018-08-11T10:14:41.819Z,40.30
2018-08-11T10:15:47.020Z,40.50
2018-08-11T10:16:52.007Z,40.60
2018-08-11T10:17:57.130Z,40.70
2018-08-11T10:19:02.059Z,40.80
2018-08-11T10:20:07.187Z,40.90
2018-08-11T10:21:12.021Z,41.10
2018-08-11T10:22:16.804Z,41.10
2018-08-11T10:23:21.574Z,41.30
2018-08-11T10:24:26.700Z,41.30
2018-08-11T10:25:31.894Z,41.40
2018-08-11T10:26:37.057Z,41.50
2018-08-11T10:27:42.174Z,42.20
2018-08-11T10:28:47.186Z,41.60
2018-08-11T10:29:52.214Z,41.70
2018-08-11T10:30:57.391Z,41.80
2018-08-11T10:32:02.354Z,41.90
2018-08-11T10:33:07.183Z,41.90
2018-08-11T10:34:12.136Z,42.00
2018-08-11T10:35:17.273Z,42.00
2018-08-11T10:36:22.404Z,42.10
2018-08-11T10:37:27.248Z,42.10
2018-08-11T10:38:32.227Z,42.10
2018-08-11T10:39:37.238Z,42.10
2018-08-11T10:40:42.278Z,42.20
2018-08-11T10:41:47.094Z,42.20
2018-08-11T10:42:51.856Z,42.20
2018-08-11T10:43:57.039Z,42.30
2018-08-11T10:45:01.838Z,42.30
2018-08-11T10:46:07.111Z,42.30
2018-08-11T10:47:12.236Z,42.20
2018-08-11T10:48:16.998Z,42.20
2018-08-11T10:49:22.071Z,42.20
2018-08-11T10:50:27.097Z,42.10
2018-08-11T10:51:32.120Z,42.10
2018-08-11T10:52:37.136Z,42.10
2018-08-11T10:53:42.224Z,42.10
2018-08-11T10:54:47.230Z,42.10
2018-08-11T10:55:52.458Z,42.20
2018-08-11T10:56:57.604Z,42.20
2018-08-11T10:58:02.549Z,42.20
2018-08-11T10:59:07.509Z,42.20
2018-08-11T11:00:12.607Z,42.20
2018-08-11T11:01:17.460Z,42.20
2018-08-11T11:02:22.172Z,42.20
2018-08-11T11:03:27.276Z,42.20
2018-08-11T11:04:32.363Z,42.30
2018-08-11T11:05:37.429Z,42.30
2018-08-11T11:06:42.412Z,42.30
2018-08-11T11:07:47.247Z,42.30
2018-08-11T11:08:52.413Z,42.30
2018-08-11T11:09:57.282Z,42.30
2018-08-11T11:11:02.057Z,42.30
2018-08-11T11:12:07.186Z,42.30
2018-08-11T11:13:12.064Z,42.40
2018-08-11T11:14:16.828Z,42.40
2018-08-11T11:15:21.896Z,42.60
2018-08-11T11:16:26.706Z,42.70
2018-08-11T11:17:31.878Z,42.70
2018-08-11T11:18:37.005Z,42.70
2018-08-11T11:19:42.085Z,42.80
2018-08-11T11:20:46.935Z,42.80
2018-08-11T11:21:52.034Z,42.90
2018-08-11T11:22:57.150Z,42.80
2018-08-11T11:24:01.947Z,42.80
2018-08-11T11:25:06.735Z,43.00
2018-08-11T11:26:11.750Z,42.90
2018-08-11T11:27:16.926Z,42.90
2018-08-11T11:28:22.010Z,43.00
2018-08-11T11:29:26.867Z,43.10
2018-08-11T11:30:31.799Z,43.20
2018-08-11T11:31:36.986Z,43.20
2018-08-11T11:32:42.125Z,43.20
2018-08-11T11:33:47.151Z,43.20
2018-08-11T11:34:52.189Z,43.10
2018-08-11T11:35:57.361Z,43.00
2018-08-11T11:37:02.599Z,43.00
2018-08-11T11:38:07.742Z,42.90
2018-08-11T11:39:13.020Z,42.90
2018-08-11T11:40:18.154Z,43.00
2018-08-11T11:41:23.095Z,43.10
2018-08-11T11:42:27.837Z,43.10
2018-08-11T11:43:33.090Z,43.20
2018-08-11T11:44:38.305Z,43.20
2018-08-11T11:45:43.280Z,43.20
2018-08-11T11:46:48.220Z,43.10
2018-08-11T11:47:53.211Z,43.00
2018-08-11T11:48:58.163Z,43.00
2018-08-11T11:50:03.167Z,43.10
2018-08-11T11:51:08.170Z,43.00
2018-08-11T11:52:13.276Z,42.90
2018-08-11T11:53:18.442Z,42.80
2018-08-11T11:54:23.417Z,42.70
2018-08-11T11:55:28.145Z,42.70
2018-08-11T11:56:33.141Z,42.70
2018-08-11T11:57:38.348Z,42.70
2018-08-11T11:58:43.320Z,42.60
2018-08-11T11:59:48.510Z,42.40
2018-08-11T12:00:53.283Z,42.40
2018-08-11T12:01:58.374Z,42.20
2018-08-11T12:03:03.468Z,42.10
2018-08-11T12:04:08.427Z,42.00
2018-08-11T12:05:13.333Z,41.90
2018-08-11T12:06:18.265Z,41.90
2018-08-11T12:07:23.310Z,41.70
2018-08-11T12:08:28.268Z,41.50
2018-08-11T12:09:33.194Z,41.40
2018-08-11T12:10:38.410Z,41.40
2018-08-11T12:11:43.406Z,41.40
2018-08-11T12:12:48.518Z,41.40
2018-08-11T12:13:53.246Z,41.40
2018-08-11T12:14:58.056Z,41.40
2018-08-11T12:16:03.212Z,41.30
2018-08-11T12:17:08.324Z,41.20
2018-08-11T12:18:13.182Z,41.20
2018-08-11T12:19:18.360Z,41.20
2018-08-11T12:20:23.410Z,41.20
2018-08-11T12:21:28.433Z,41.30
2018-08-11T12:22:33.341Z,41.30
2018-08-11T12:23:38.262Z,41.30
2018-08-11T12:24:43.904Z,41.20
2018-08-11T12:25:49.003Z,41.10
2018-08-11T12:26:53.743Z,41.10
2018-08-11T12:27:58.888Z,41.10
2018-08-11T12:29:03.726Z,41.10
2018-08-11T12:30:08.902Z,41.00
2018-08-11T12:31:13.904Z,40.90
2018-08-11T12:32:18.905Z,40.90
2018-08-11T12:33:23.914Z,40.90
2018-08-11T12:34:28.815Z,41.10
2018-08-11T12:35:33.778Z,41.10
2018-08-11T12:36:38.752Z,41.10
2018-08-11T12:37:43.521Z,41.30
2018-08-11T12:38:48.293Z,41.30
2018-08-11T12:39:53.411Z,41.30
2018-08-11T12:40:58.399Z,41.40
2018-08-11T12:42:03.668Z,41.50
2018-08-11T12:43:08.843Z,41.60
2018-08-11T12:44:13.934Z,41.60
2018-08-11T12:45:19.323Z,41.70
2018-08-11T12:46:24.494Z,41.80
2018-08-11T12:47:29.520Z,41.80
2018-08-11T12:48:34.440Z,41.90
2018-08-11T12:49:39.442Z,42.00
2018-08-11T12:50:44.320Z,42.00
2018-08-11T12:51:49.080Z,42.00
2018-08-11T12:52:54.214Z,42.00
2018-08-11T12:53:59.369Z,42.00
2018-08-11T12:55:04.278Z,42.00
2018-08-11T12:56:09.296Z,42.00
2018-08-11T12:57:14.502Z,42.10
2018-08-11T12:58:19.956Z,42.10
2018-08-11T12:59:25.029Z,42.10
2018-08-11T13:00:29.925Z,42.10
2018-08-11T13:01:35.008Z,42.20
2018-08-11T13:02:40.086Z,42.20
2018-08-11T13:03:45.211Z,42.30
2018-08-11T13:04:50.008Z,42.30
2018-08-11T13:05:55.133Z,42.30
2018-08-11T13:07:00.417Z,42.40
2018-08-11T13:08:05.286Z,42.50
2018-08-11T13:09:10.347Z,42.60
2018-08-11T13:10:15.393Z,42.70
2018-08-11T13:11:20.724Z,42.80
2018-08-11T13:12:25.502Z,43.00
2018-08-11T13:13:30.545Z,43.00
2018-08-11T13:14:35.319Z,43.20
2018-08-11T13:15:40.990Z,43.20
2018-08-11T13:16:46.013Z,43.30
2018-08-11T13:17:50.932Z,43.40
2018-08-11T13:18:55.941Z,43.40
2018-08-11T13:20:01.289Z,43.50
2018-08-11T13:21:06.597Z,43.50
2018-08-11T13:22:11.614Z,43.60
2018-08-11T13:23:16.650Z,43.60
2018-08-11T13:24:21.430Z,43.60
2018-08-11T13:25:26.313Z,43.60
2018-08-11T13:26:31.388Z,43.70
2018-08-11T13:27:36.291Z,43.90
2018-08-11T13:28:41.228Z,43.90
2018-08-11T13:29:46.214Z,44.00
2018-08-11T13:30:51.233Z,44.10
2018-08-11T13:31:56.707Z,44.20
2018-08-11T13:33:01.856Z,44.30
2018-08-11T13:34:07.093Z,44.30
2018-08-11T13:35:12.072Z,44.30
2018-08-11T13:36:17.182Z,44.40
2018-08-11T13:37:22.148Z,44.50
2018-08-11T13:38:26.933Z,44.50
2018-08-11T13:39:32.062Z,44.50
2018-08-11T13:40:37.437Z,44.50
2018-08-11T13:41:42.277Z,44.60
2018-08-11T13:42:47.079Z,44.60
2018-08-11T13:43:52.490Z,44.80
2018-08-11T13:44:58.476Z,44.80
2018-08-11T13:46:03.421Z,45.00
2018-08-11T13:47:08.612Z,45.00
2018-08-11T13:48:13.625Z,45.00
2018-08-11T13:49:18.633Z,45.00
2018-08-11T13:50:23.909Z,45.00
2018-08-11T13:51:29.398Z,45.00
2018-08-11T13:52:34.492Z,44.90
2018-08-11T13:53:39.461Z,45.00
2018-08-11T13:54:44.624Z,44.90
2018-08-11T13:55:49.707Z,45.00
2018-08-11T13:56:54.626Z,45.10